sensor_id;sensor_type;location;lat;lon;timestamp;P1;durP1;ratioP1;P2;durP2;ratioP2
33987;SDS011;37428;53.580;-1.666;2022-11-20T00:02:54;24.48;;;10.35;;
33987;SDS011;37428;53.580;-1.666;2022-11-20T00:06:00;23.92;;;9.77;;
33987;SDS011;37428;53.580;-1.666;2022-11-20T00:09:03;24.60;;;10.75;;
33987;SDS011;37428;53.580;-1.666;2022-11-20T00:12:05;25.73;;;10.05;;
33987;SDS011;37428;53.580;-1.666;2022-11-20T00:15:08;25.83;;;11.90;;
33987;SDS011;37428;53.580;-1.666;2022-11-20T00:18:11;29.60;;;12.38;;
33987;SDS011;37428;53.580;-1.666;2022-11-20T00:21:16;26.90;;;14.10;;
33987;SDS011;37428;53.580;-1.666;2022-11-20T00:24:19;27.88;;;14.70;;
33987;SDS011;37428;53.580;-1.666;2022-11-20T00:27:21;29.48;;;13.60;;
33987;SDS011;37428;53.580;-1.666;2022-11-20T00:30:23;26.63;;;14.65;;
33987;SDS011;37428;53.580;-1.666;2022-11-20T00:33:25;27.80;;;15.00;;
33987;SDS011;37428;53.580;-1.666;2022-11-20T00:36:31;33.72;;;18.00;;
33987;SDS011;37428;53.580;-1.666;2022-11-20T00:39:35;23.30;;;15.07;;
33987;SDS011;37428;53.580;-1.666;2022-11-20T00:42:37;24.35;;;14.98;;
33987;SDS011;37428;53.580;-1.666;2022-11-20T00:45:39;31.83;;;17.40;;
33987;SDS011;37428;53.580;-1.666;2022-11-20T00:48:42;27.70;;;17.45;;
33987;SDS011;37428;53.580;-1.666;2022-11-20T00:51:46;32.15;;;18.60;;
33987;SDS011;37428;53.580;-1.666;2022-11-20T00:54:48;36.97;;;18.20;;
33987;SDS011;37428;53.580;-1.666;2022-11-20T00:57:51;28.92;;;16.95;;
33987;SDS011;37428;53.580;-1.666;2022-11-20T01:04:00;24.00;;;16.23;;
33987;SDS011;37428;53.580;-1.666;2022-11-20T01:07:04;25.85;;;15.75;;
33987;SDS011;37428;53.580;-1.666;2022-11-20T01:10:06;23.40;;;13.80;;
33987;SDS011;37428;53.580;-1.666;2022-11-20T01:13:09;21.33;;;13.18;;
33987;SDS011;37428;53.580;-1.666;2022-11-20T01:16:29;25.48;;;13.23;;
33987;SDS011;37428;53.580;-1.666;2022-11-20T01:19:33;21.23;;;12.77;;
33987;SDS011;37428;53.580;-1.666;2022-11-20T01:22:37;28.65;;;15.93;;
33987;SDS011;37428;53.580;-1.666;2022-11-20T01:25:39;29.67;;;14.38;;
33987;SDS011;37428;53.580;-1.666;2022-11-20T01:28:42;24.48;;;14.40;;
33987;SDS011;37428;53.580;-1.666;2022-11-20T01:31:44;22.13;;;14.30;;
33987;SDS011;37428;53.580;-1.666;2022-11-20T01:34:47;29.27;;;16.90;;
33987;SDS011;37428;53.580;-1.666;2022-11-20T01:37:51;26.70;;;17.20;;
33987;SDS011;37428;53.580;-1.666;2022-11-20T01:40:53;27.73;;;17.17;;
33987;SDS011;37428;53.580;-1.666;2022-11-20T01:43:56;34.28;;;19.23;;
33987;SDS011;37428;53.580;-1.666;2022-11-20T01:46:58;31.85;;;19.05;;
33987;SDS011;37428;53.580;-1.666;2022-11-20T01:50:04;32.50;;;19.92;;
33987;SDS011;37428;53.580;-1.666;2022-11-20T01:53:12;33.17;;;20.52;;
33987;SDS011;37428;53.580;-1.666;2022-11-20T01:56:18;34.08;;;20.65;;
33987;SDS011;37428;53.580;-1.666;2022-11-20T01:59:20;39.08;;;22.98;;
33987;SDS011;37428;53.580;-1.666;2022-11-20T02:02:25;33.58;;;19.85;;
33987;SDS011;37428;53.580;-1.666;2022-11-20T02:05:31;31.65;;;19.92;;
33987;SDS011;37428;53.580;-1.666;2022-11-20T02:08:38;31.63;;;20.42;;
33987;SDS011;37428;53.580;-1.666;2022-11-20T02:11:40;36.33;;;20.92;;
33987;SDS011;37428;53.580;-1.666;2022-11-20T02:14:42;26.05;;;17.10;;
33987;SDS011;37428;53.580;-1.666;2022-11-20T02:17:44;29.73;;;17.52;;
33987;SDS011;37428;53.580;-1.666;2022-11-20T02:20:46;30.23;;;16.50;;
33987;SDS011;37428;53.580;-1.666;2022-11-20T02:23:57;25.40;;;14.40;;
33987;SDS011;37428;53.580;-1.666;2022-11-20T02:27:04;25.25;;;15.38;;
33987;SDS011;37428;53.580;-1.666;2022-11-20T02:30:10;37.63;;;16.38;;
33987;SDS011;37428;53.580;-1.666;2022-11-20T02:33:13;23.35;;;13.93;;
33987;SDS011;37428;53.580;-1.666;2022-11-20T02:39:19;23.75;;;12.00;;
33987;SDS011;37428;53.580;-1.666;2022-11-20T02:42:24;17.38;;;11.18;;
33987;SDS011;37428;53.580;-1.666;2022-11-20T02:45:27;18.40;;;10.60;;
33987;SDS011;37428;53.580;-1.666;2022-11-20T02:51:31;17.50;;;8.15;;
33987;SDS011;37428;53.580;-1.666;2022-11-20T02:54:35;18.85;;;8.50;;
33987;SDS011;37428;53.580;-1.666;2022-11-20T02:57:38;19.13;;;8.48;;
33987;SDS011;37428;53.580;-1.666;2022-11-20T03:00:40;17.95;;;8.68;;
33987;SDS011;37428;53.580;-1.666;2022-11-20T03:03:42;12.80;;;7.72;;
33987;SDS011;37428;53.580;-1.666;2022-11-20T03:06:45;12.55;;;7.25;;
33987;SDS011;37428;53.580;-1.666;2022-11-20T03:09:48;13.80;;;6.65;;
33987;SDS011;37428;53.580;-1.666;2022-11-20T03:12:52;18.63;;;7.50;;
33987;SDS011;37428;53.580;-1.666;2022-11-20T03:15:55;12.80;;;7.32;;
33987;SDS011;37428;53.580;-1.666;2022-11-20T03:18:58;14.48;;;7.90;;
33987;SDS011;37428;53.580;-1.666;2022-11-20T03:25:04;13.30;;;7.68;;
33987;SDS011;37428;53.580;-1.666;2022-11-20T03:28:06;17.08;;;9.25;;
33987;SDS011;37428;53.580;-1.666;2022-11-20T03:31:09;19.75;;;10.73;;
33987;SDS011;37428;53.580;-1.666;2022-11-20T03:34:13;20.45;;;10.85;;
33987;SDS011;37428;53.580;-1.666;2022-11-20T03:37:15;24.02;;;11.75;;
33987;SDS011;37428;53.580;-1.666;2022-11-20T03:40:19;27.98;;;12.52;;
33987;SDS011;37428;53.580;-1.666;2022-11-20T03:43:21;21.20;;;12.57;;
33987;SDS011;37428;53.580;-1.666;2022-11-20T03:46:23;20.25;;;11.95;;
33987;SDS011;37428;53.580;-1.666;2022-11-20T03:49:26;18.48;;;11.77;;
33987;SDS011;37428;53.580;-1.666;2022-11-20T03:52:28;20.23;;;12.52;;
33987;SDS011;37428;53.580;-1.666;2022-11-20T03:55:32;14.15;;;9.20;;
33987;SDS011;37428;53.580;-1.666;2022-11-20T03:58:34;13.70;;;8.60;;
33987;SDS011;37428;53.580;-1.666;2022-11-20T04:01:37;12.80;;;9.15;;
33987;SDS011;37428;53.580;-1.666;2022-11-20T04:04:40;17.17;;;9.52;;
33987;SDS011;37428;53.580;-1.666;2022-11-20T04:07:42;13.98;;;5.68;;
33987;SDS011;37428;53.580;-1.666;2022-11-20T04:10:45;12.32;;;6.53;;
33987;SDS011;37428;53.580;-1.666;2022-11-20T04:13:49;11.85;;;6.63;;
33987;SDS011;37428;53.580;-1.666;2022-11-20T04:16:52;12.65;;;6.32;;
33987;SDS011;37428;53.580;-1.666;2022-11-20T04:19:54;11.32;;;5.20;;
33987;SDS011;37428;53.580;-1.666;2022-11-20T04:22:57;6.47;;;4.32;;
33987;SDS011;37428;53.580;-1.666;2022-11-20T04:26:04;9.52;;;5.60;;
33987;SDS011;37428;53.580;-1.666;2022-11-20T04:29:09;10.32;;;6.38;;
33987;SDS011;37428;53.580;-1.666;2022-11-20T04:32:13;6.75;;;4.50;;
33987;SDS011;37428;53.580;-1.666;2022-11-20T04:35:15;6.72;;;4.38;;
33987;SDS011;37428;53.580;-1.666;2022-11-20T04:38:17;7.05;;;3.92;;
33987;SDS011;37428;53.580;-1.666;2022-11-20T04:41:21;7.50;;;4.05;;
33987;SDS011;37428;53.580;-1.666;2022-11-20T04:44:24;6.55;;;5.18;;
33987;SDS011;37428;53.580;-1.666;2022-11-20T04:47:26;8.25;;;5.10;;
33987;SDS011;37428;53.580;-1.666;2022-11-20T04:50:28;11.07;;;4.95;;
33987;SDS011;37428;53.580;-1.666;2022-11-20T04:53:31;6.30;;;4.40;;
33987;SDS011;37428;53.580;-1.666;2022-11-20T04:56:34;10.75;;;4.35;;
33987;SDS011;37428;53.580;-1.666;2022-11-20T04:59:36;4.10;;;2.70;;
33987;SDS011;37428;53.580;-1.666;2022-11-20T05:02:38;2.22;;;2.03;;
33987;SDS011;37428;53.580;-1.666;2022-11-20T05:05:41;1.60;;;1.50;;
33987;SDS011;37428;53.580;-1.666;2022-11-20T05:08:43;2.03;;;1.45;;
33987;SDS011;37428;53.580;-1.666;2022-11-20T05:11:47;3.30;;;0.90;;
33987;SDS011;37428;53.580;-1.666;2022-11-20T05:14:49;1.65;;;0.90;;
33987;SDS011;37428;53.580;-1.666;2022-11-20T05:17:51;1.13;;;0.80;;
33987;SDS011;37428;53.580;-1.666;2022-11-20T05:20:56;1.23;;;0.80;;
33987;SDS011;37428;53.580;-1.666;2022-11-20T05:23:59;0.75;;;0.65;;
33987;SDS011;37428;53.580;-1.666;2022-11-20T05:27:02;1.02;;;0.70;;
33987;SDS011;37428;53.580;-1.666;2022-11-20T05:30:05;0.60;;;0.60;;
33987;SDS011;37428;53.580;-1.666;2022-11-20T05:33:08;2.15;;;0.90;;
33987;SDS011;37428;53.580;-1.666;2022-11-20T05:36:11;1.58;;;1.30;;
33987;SDS011;37428;53.580;-1.666;2022-11-20T05:39:14;1.70;;;1.60;;
33987;SDS011;37428;53.580;-1.666;2022-11-20T05:42:17;1.50;;;1.40;;
33987;SDS011;37428;53.580;-1.666;2022-11-20T05:45:31;2.85;;;1.88;;
33987;SDS011;37428;53.580;-1.666;2022-11-20T05:48:36;3.00;;;1.95;;
33987;SDS011;37428;53.580;-1.666;2022-11-20T05:51:39;2.58;;;2.38;;
33987;SDS011;37428;53.580;-1.666;2022-11-20T05:54:41;1.70;;;1.60;;
33987;SDS011;37428;53.580;-1.666;2022-11-20T05:57:45;1.98;;;1.15;;
33987;SDS011;37428;53.580;-1.666;2022-11-20T06:00:47;1.52;;;1.42;;
33987;SDS011;37428;53.580;-1.666;2022-11-20T06:03:49;2.25;;;1.20;;
33987;SDS011;37428;53.580;-1.666;2022-11-20T06:06:52;1.23;;;1.10;;
33987;SDS011;37428;53.580;-1.666;2022-11-20T06:09:54;1.45;;;1.20;;
33987;SDS011;37428;53.580;-1.666;2022-11-20T06:12:58;2.35;;;1.10;;
33987;SDS011;37428;53.580;-1.666;2022-11-20T06:16:00;3.08;;;1.40;;
33987;SDS011;37428;53.580;-1.666;2022-11-20T06:19:03;5.35;;;2.05;;
33987;SDS011;37428;53.580;-1.666;2022-11-20T06:22:05;8.43;;;2.38;;
33987;SDS011;37428;53.580;-1.666;2022-11-20T06:25:08;3.58;;;2.47;;
33987;SDS011;37428;53.580;-1.666;2022-11-20T06:28:11;4.25;;;2.58;;
33987;SDS011;37428;53.580;-1.666;2022-11-20T06:31:14;7.85;;;2.83;;
33987;SDS011;37428;53.580;-1.666;2022-11-20T06:34:18;5.80;;;2.33;;
33987;SDS011;37428;53.580;-1.666;2022-11-20T06:37:20;7.85;;;2.75;;
33987;SDS011;37428;53.580;-1.666;2022-11-20T06:40:23;10.07;;;3.08;;
33987;SDS011;37428;53.580;-1.666;2022-11-20T06:46:31;8.95;;;2.70;;
33987;SDS011;37428;53.580;-1.666;2022-11-20T06:49:33;11.65;;;3.42;;
33987;SDS011;37428;53.580;-1.666;2022-11-20T06:52:37;10.80;;;3.60;;
33987;SDS011;37428;53.580;-1.666;2022-11-20T06:55:41;9.13;;;3.25;;
33987;SDS011;37428;53.580;-1.666;2022-11-20T06:58:46;14.40;;;3.42;;
33987;SDS011;37428;53.580;-1.666;2022-11-20T07:01:48;9.00;;;3.25;;
33987;SDS011;37428;53.580;-1.666;2022-11-20T07:04:50;8.68;;;3.38;;
33987;SDS011;37428;53.580;-1.666;2022-11-20T07:07:55;11.98;;;2.95;;
33987;SDS011;37428;53.580;-1.666;2022-11-20T07:10:57;13.18;;;3.60;;
33987;SDS011;37428;53.580;-1.666;2022-11-20T07:14:02;8.85;;;3.72;;
33987;SDS011;37428;53.580;-1.666;2022-11-20T07:17:05;14.35;;;4.32;;
33987;SDS011;37428;53.580;-1.666;2022-11-20T07:20:07;9.23;;;4.13;;
33987;SDS011;37428;53.580;-1.666;2022-11-20T07:23:10;8.88;;;2.97;;
33987;SDS011;37428;53.580;-1.666;2022-11-20T07:26:12;16.23;;;4.35;;
33987;SDS011;37428;53.580;-1.666;2022-11-20T07:29:16;12.82;;;4.43;;
33987;SDS011;37428;53.580;-1.666;2022-11-20T07:32:18;12.77;;;4.03;;
33987;SDS011;37428;53.580;-1.666;2022-11-20T07:35:20;10.50;;;4.20;;
33987;SDS011;37428;53.580;-1.666;2022-11-20T07:38:23;25.42;;;5.60;;
33987;SDS011;37428;53.580;-1.666;2022-11-20T07:41:26;17.40;;;4.65;;
33987;SDS011;37428;53.580;-1.666;2022-11-20T07:44:30;12.50;;;5.15;;
33987;SDS011;37428;53.580;-1.666;2022-11-20T07:47:34;19.77;;;5.30;;
33987;SDS011;37428;53.580;-1.666;2022-11-20T07:50:37;18.67;;;4.60;;
33987;SDS011;37428;53.580;-1.666;2022-11-20T07:53:39;18.65;;;6.03;;
33987;SDS011;37428;53.580;-1.666;2022-11-20T07:56:41;11.93;;;5.35;;
33987;SDS011;37428;53.580;-1.666;2022-11-20T07:59:45;20.73;;;4.80;;
33987;SDS011;37428;53.580;-1.666;2022-11-20T08:02:47;25.55;;;5.60;;
33987;SDS011;37428;53.580;-1.666;2022-11-20T08:05:49;20.77;;;5.90;;
33987;SDS011;37428;53.580;-1.666;2022-11-20T08:08:51;22.40;;;5.30;;
33987;SDS011;37428;53.580;-1.666;2022-11-20T08:11:53;15.43;;;4.85;;
33987;SDS011;37428;53.580;-1.666;2022-11-20T08:15:14;11.68;;;4.25;;
33987;SDS011;37428;53.580;-1.666;2022-11-20T08:18:17;17.00;;;5.95;;
33987;SDS011;37428;53.580;-1.666;2022-11-20T08:21:19;13.35;;;4.93;;
33987;SDS011;37428;53.580;-1.666;2022-11-20T08:24:21;12.07;;;3.13;;
33987;SDS011;37428;53.580;-1.666;2022-11-20T08:27:24;8.45;;;3.45;;
33987;SDS011;37428;53.580;-1.666;2022-11-20T08:30:28;7.80;;;2.95;;
33987;SDS011;37428;53.580;-1.666;2022-11-20T08:33:30;6.35;;;2.13;;
33987;SDS011;37428;53.580;-1.666;2022-11-20T08:36:33;6.57;;;2.50;;
33987;SDS011;37428;53.580;-1.666;2022-11-20T08:42:45;11.98;;;4.65;;
33987;SDS011;37428;53.580;-1.666;2022-11-20T08:45:49;12.95;;;5.03;;
33987;SDS011;37428;53.580;-1.666;2022-11-20T08:48:51;15.20;;;6.07;;
33987;SDS011;37428;53.580;-1.666;2022-11-20T08:51:53;14.20;;;3.92;;
33987;SDS011;37428;53.580;-1.666;2022-11-20T08:54:55;16.80;;;4.18;;
33987;SDS011;37428;53.580;-1.666;2022-11-20T08:57:58;14.32;;;5.03;;
33987;SDS011;37428;53.580;-1.666;2022-11-20T09:01:05;14.27;;;3.58;;
33987;SDS011;37428;53.580;-1.666;2022-11-20T09:04:08;15.18;;;3.83;;
33987;SDS011;37428;53.580;-1.666;2022-11-20T09:07:11;14.05;;;4.00;;
33987;SDS011;37428;53.580;-1.666;2022-11-20T09:10:14;16.48;;;3.05;;
33987;SDS011;37428;53.580;-1.666;2022-11-20T09:13:16;22.30;;;4.60;;
33987;SDS011;37428;53.580;-1.666;2022-11-20T09:16:19;18.08;;;4.15;;
33987;SDS011;37428;53.580;-1.666;2022-11-20T09:19:23;22.90;;;4.53;;
33987;SDS011;37428;53.580;-1.666;2022-11-20T09:22:25;17.52;;;4.72;;
33987;SDS011;37428;53.580;-1.666;2022-11-20T09:25:27;17.38;;;4.38;;
33987;SDS011;37428;53.580;-1.666;2022-11-20T09:28:29;17.65;;;4.18;;
33987;SDS011;37428;53.580;-1.666;2022-11-20T09:31:34;25.20;;;4.50;;
33987;SDS011;37428;53.580;-1.666;2022-11-20T09:34:36;18.90;;;4.40;;
33987;SDS011;37428;53.580;-1.666;2022-11-20T09:37:38;12.90;;;4.43;;
33987;SDS011;37428;53.580;-1.666;2022-11-20T09:40:46;15.63;;;5.00;;
33987;SDS011;37428;53.580;-1.666;2022-11-20T09:43:57;21.73;;;4.22;;
33987;SDS011;37428;53.580;-1.666;2022-11-20T09:47:06;19.67;;;4.60;;
33987;SDS011;37428;53.580;-1.666;2022-11-20T09:50:23;10.48;;;3.20;;
33987;SDS011;37428;53.580;-1.666;2022-11-20T09:53:30;22.17;;;4.30;;
33987;SDS011;37428;53.580;-1.666;2022-11-20T09:56:41;21.90;;;3.20;;
33987;SDS011;37428;53.580;-1.666;2022-11-20T09:59:46;21.50;;;3.25;;
33987;SDS011;37428;53.580;-1.666;2022-11-20T10:02:55;16.55;;;3.38;;
33987;SDS011;37428;53.580;-1.666;2022-11-20T10:06:01;14.73;;;2.92;;
33987;SDS011;37428;53.580;-1.666;2022-11-20T10:09:13;18.30;;;3.13;;
33987;SDS011;37428;53.580;-1.666;2022-11-20T10:12:25;12.07;;;3.08;;
33987;SDS011;37428;53.580;-1.666;2022-11-20T10:15:33;15.02;;;2.60;;
33987;SDS011;37428;53.580;-1.666;2022-11-20T10:18:44;13.00;;;2.60;;
33987;SDS011;37428;53.580;-1.666;2022-11-20T10:22:02;16.35;;;2.78;;
33987;SDS011;37428;53.580;-1.666;2022-11-20T10:25:13;13.85;;;3.00;;
33987;SDS011;37428;53.580;-1.666;2022-11-20T10:28:19;13.68;;;2.63;;
33987;SDS011;37428;53.580;-1.666;2022-11-20T10:31:30;18.08;;;3.10;;
33987;SDS011;37428;53.580;-1.666;2022-11-20T10:34:38;16.52;;;3.53;;
33987;SDS011;37428;53.580;-1.666;2022-11-20T10:37:49;14.70;;;3.10;;
33987;SDS011;37428;53.580;-1.666;2022-11-20T10:40:57;12.48;;;2.78;;
33987;SDS011;37428;53.580;-1.666;2022-11-20T10:44:17;19.10;;;3.13;;
33987;SDS011;37428;53.580;-1.666;2022-11-20T10:47:42;11.63;;;3.25;;
33987;SDS011;37428;53.580;-1.666;2022-11-20T10:50:49;14.38;;;2.65;;
33987;SDS011;37428;53.580;-1.666;2022-11-20T10:54:07;14.57;;;3.05;;
33987;SDS011;37428;53.580;-1.666;2022-11-20T10:57:21;13.75;;;2.13;;
33987;SDS011;37428;53.580;-1.666;2022-11-20T11:00:33;22.95;;;3.28;;
33987;SDS011;37428;53.580;-1.666;2022-11-20T11:03:36;10.27;;;2.17;;
33987;SDS011;37428;53.580;-1.666;2022-11-20T11:06:41;10.43;;;2.03;;
33987;SDS011;37428;53.580;-1.666;2022-11-20T11:09:48;14.80;;;3.88;;
33987;SDS011;37428;53.580;-1.666;2022-11-20T11:12:53;13.40;;;2.88;;
33987;SDS011;37428;53.580;-1.666;2022-11-20T11:15:55;15.40;;;2.10;;
33987;SDS011;37428;53.580;-1.666;2022-11-20T11:19:05;15.50;;;3.13;;
33987;SDS011;37428;53.580;-1.666;2022-11-20T11:22:11;12.00;;;2.60;;
33987;SDS011;37428;53.580;-1.666;2022-11-20T11:25:20;15.13;;;2.85;;
33987;SDS011;37428;53.580;-1.666;2022-11-20T11:28:25;18.33;;;2.38;;
33987;SDS011;37428;53.580;-1.666;2022-11-20T11:31:28;12.35;;;3.35;;
33987;SDS011;37428;53.580;-1.666;2022-11-20T11:34:32;12.55;;;2.60;;
33987;SDS011;37428;53.580;-1.666;2022-11-20T11:37:36;12.63;;;2.13;;
33987;SDS011;37428;53.580;-1.666;2022-11-20T11:40:40;15.68;;;3.05;;
33987;SDS011;37428;53.580;-1.666;2022-11-20T11:43:49;16.08;;;2.13;;
33987;SDS011;37428;53.580;-1.666;2022-11-20T11:47:11;19.17;;;2.95;;
33987;SDS011;37428;53.580;-1.666;2022-11-20T11:50:23;15.77;;;3.60;;
33987;SDS011;37428;53.580;-1.666;2022-11-20T11:53:28;10.45;;;2.85;;
33987;SDS011;37428;53.580;-1.666;2022-11-20T11:56:31;18.73;;;2.47;;
33987;SDS011;37428;53.580;-1.666;2022-11-20T11:59:39;19.13;;;3.00;;
33987;SDS011;37428;53.580;-1.666;2022-11-20T12:02:52;13.48;;;3.33;;
33987;SDS011;37428;53.580;-1.666;2022-11-20T12:06:03;12.98;;;2.17;;
33987;SDS011;37428;53.580;-1.666;2022-11-20T12:09:12;15.50;;;2.58;;
33987;SDS011;37428;53.580;-1.666;2022-11-20T12:12:16;15.13;;;2.72;;
33987;SDS011;37428;53.580;-1.666;2022-11-20T12:15:27;11.27;;;2.88;;
33987;SDS011;37428;53.580;-1.666;2022-11-20T12:18:32;16.73;;;3.58;;
33987;SDS011;37428;53.580;-1.666;2022-11-20T12:21:35;16.38;;;2.75;;
33987;SDS011;37428;53.580;-1.666;2022-11-20T12:24:52;20.15;;;3.28;;
33987;SDS011;37428;53.580;-1.666;2022-11-20T12:28:06;13.50;;;2.63;;
33987;SDS011;37428;53.580;-1.666;2022-11-20T12:31:24;16.38;;;2.40;;
33987;SDS011;37428;53.580;-1.666;2022-11-20T12:34:43;15.73;;;3.30;;
33987;SDS011;37428;53.580;-1.666;2022-11-20T12:37:52;14.90;;;3.67;;
33987;SDS011;37428;53.580;-1.666;2022-11-20T12:41:12;11.52;;;3.38;;
33987;SDS011;37428;53.580;-1.666;2022-11-20T12:44:40;23.48;;;2.83;;
33987;SDS011;37428;53.580;-1.666;2022-11-20T12:48:18;14.05;;;2.28;;
33987;SDS011;37428;53.580;-1.666;2022-11-20T12:51:32;12.98;;;2.33;;
33987;SDS011;37428;53.580;-1.666;2022-11-20T12:58:12;18.10;;;3.63;;
33987;SDS011;37428;53.580;-1.666;2022-11-20T13:01:24;13.38;;;2.53;;
33987;SDS011;37428;53.580;-1.666;2022-11-20T13:04:49;16.25;;;3.25;;
33987;SDS011;37428;53.580;-1.666;2022-11-20T13:08:02;11.73;;;3.10;;
33987;SDS011;37428;53.580;-1.666;2022-11-20T13:11:11;12.65;;;2.78;;
33987;SDS011;37428;53.580;-1.666;2022-11-20T13:14:26;13.40;;;2.75;;
33987;SDS011;37428;53.580;-1.666;2022-11-20T13:17:36;16.67;;;2.70;;
33987;SDS011;37428;53.580;-1.666;2022-11-20T13:20:44;16.35;;;3.00;;
33987;SDS011;37428;53.580;-1.666;2022-11-20T13:23:48;13.70;;;2.40;;
33987;SDS011;37428;53.580;-1.666;2022-11-20T13:26:59;14.07;;;3.50;;
33987;SDS011;37428;53.580;-1.666;2022-11-20T13:30:12;23.08;;;4.68;;
33987;SDS011;37428;53.580;-1.666;2022-11-20T13:33:22;13.02;;;2.78;;
33987;SDS011;37428;53.580;-1.666;2022-11-20T13:36:27;16.30;;;3.05;;
33987;SDS011;37428;53.580;-1.666;2022-11-20T13:39:35;22.88;;;3.53;;
33987;SDS011;37428;53.580;-1.666;2022-11-20T13:42:38;16.77;;;3.90;;
33987;SDS011;37428;53.580;-1.666;2022-11-20T13:45:55;18.33;;;3.70;;
33987;SDS011;37428;53.580;-1.666;2022-11-20T13:49:05;19.35;;;3.13;;
33987;SDS011;37428;53.580;-1.666;2022-11-20T13:52:21;18.30;;;3.00;;
33987;SDS011;37428;53.580;-1.666;2022-11-20T13:55:37;17.58;;;2.88;;
33987;SDS011;37428;53.580;-1.666;2022-11-20T13:58:48;20.48;;;3.22;;
33987;SDS011;37428;53.580;-1.666;2022-11-20T14:01:58;17.40;;;3.17;;
33987;SDS011;37428;53.580;-1.666;2022-11-20T14:05:02;16.45;;;3.58;;
33987;SDS011;37428;53.580;-1.666;2022-11-20T14:08:06;20.20;;;2.92;;
33987;SDS011;37428;53.580;-1.666;2022-11-20T14:11:15;17.23;;;3.20;;
33987;SDS011;37428;53.580;-1.666;2022-11-20T14:14:19;20.13;;;3.17;;
33987;SDS011;37428;53.580;-1.666;2022-11-20T14:17:30;22.17;;;3.22;;
33987;SDS011;37428;53.580;-1.666;2022-11-20T14:20:33;12.05;;;2.95;;
33987;SDS011;37428;53.580;-1.666;2022-11-20T14:23:35;36.25;;;6.30;;
33987;SDS011;37428;53.580;-1.666;2022-11-20T14:26:41;12.18;;;2.83;;
33987;SDS011;37428;53.580;-1.666;2022-11-20T14:29:44;12.40;;;2.35;;
33987;SDS011;37428;53.580;-1.666;2022-11-20T14:32:50;14.98;;;2.22;;
33987;SDS011;37428;53.580;-1.666;2022-11-20T14:35:55;14.88;;;2.45;;
33987;SDS011;37428;53.580;-1.666;2022-11-20T14:38:59;21.30;;;4.03;;
33987;SDS011;37428;53.580;-1.666;2022-11-20T14:42:01;11.68;;;3.60;;
33987;SDS011;37428;53.580;-1.666;2022-11-20T14:45:04;27.17;;;3.30;;
33987;SDS011;37428;53.580;-1.666;2022-11-20T14:48:10;14.65;;;3.22;;
33987;SDS011;37428;53.580;-1.666;2022-11-20T14:51:23;15.25;;;3.47;;
33987;SDS011;37428;53.580;-1.666;2022-11-20T14:54:28;16.88;;;4.43;;
33987;SDS011;37428;53.580;-1.666;2022-11-20T14:57:31;14.63;;;2.97;;
33987;SDS011;37428;53.580;-1.666;2022-11-20T15:00:35;20.40;;;3.45;;
33987;SDS011;37428;53.580;-1.666;2022-11-20T15:03:39;15.02;;;3.42;;
33987;SDS011;37428;53.580;-1.666;2022-11-20T15:06:48;16.00;;;3.60;;
33987;SDS011;37428;53.580;-1.666;2022-11-20T15:10:01;16.20;;;3.90;;
33987;SDS011;37428;53.580;-1.666;2022-11-20T15:13:05;23.00;;;3.25;;
33987;SDS011;37428;53.580;-1.666;2022-11-20T15:16:13;8.98;;;2.90;;
33987;SDS011;37428;53.580;-1.666;2022-11-20T15:19:20;17.52;;;3.60;;
33987;SDS011;37428;53.580;-1.666;2022-11-20T15:22:24;11.27;;;2.67;;
33987;SDS011;37428;53.580;-1.666;2022-11-20T15:25:26;14.25;;;2.60;;
33987;SDS011;37428;53.580;-1.666;2022-11-20T15:28:29;16.48;;;3.53;;
33987;SDS011;37428;53.580;-1.666;2022-11-20T15:31:33;13.15;;;2.97;;
33987;SDS011;37428;53.580;-1.666;2022-11-20T15:34:36;15.70;;;4.18;;
33987;SDS011;37428;53.580;-1.666;2022-11-20T15:37:38;10.23;;;2.65;;
33987;SDS011;37428;53.580;-1.666;2022-11-20T15:40:41;6.15;;;1.45;;
33987;SDS011;37428;53.580;-1.666;2022-11-20T15:43:43;3.85;;;1.15;;
33987;SDS011;37428;53.580;-1.666;2022-11-20T15:46:45;7.68;;;1.23;;
33987;SDS011;37428;53.580;-1.666;2022-11-20T15:49:49;3.47;;;1.17;;
33987;SDS011;37428;53.580;-1.666;2022-11-20T15:52:51;3.50;;;0.52;;
33987;SDS011;37428;53.580;-1.666;2022-11-20T15:55:53;6.35;;;1.38;;
33987;SDS011;37428;53.580;-1.666;2022-11-20T15:58:55;2.45;;;1.20;;
33987;SDS011;37428;53.580;-1.666;2022-11-20T16:01:57;5.50;;;2.42;;
33987;SDS011;37428;53.580;-1.666;2022-11-20T16:05:01;7.93;;;4.38;;
33987;SDS011;37428;53.580;-1.666;2022-11-20T16:08:03;12.70;;;8.32;;
33987;SDS011;37428;53.580;-1.666;2022-11-20T16:14:09;2.95;;;1.50;;
33987;SDS011;37428;53.580;-1.666;2022-11-20T16:17:44;2.58;;;1.27;;
33987;SDS011;37428;53.580;-1.666;2022-11-20T16:20:48;2.17;;;0.98;;
33987;SDS011;37428;53.580;-1.666;2022-11-20T16:23:52;5.72;;;1.70;;
33987;SDS011;37428;53.580;-1.666;2022-11-20T16:26:54;4.70;;;0.90;;
33987;SDS011;37428;53.580;-1.666;2022-11-20T16:29:57;1.23;;;0.90;;
33987;SDS011;37428;53.580;-1.666;2022-11-20T16:32:59;1.95;;;1.20;;
33987;SDS011;37428;53.580;-1.666;2022-11-20T16:39:09;1.52;;;1.42;;
33987;SDS011;37428;53.580;-1.666;2022-11-20T16:42:12;2.22;;;1.73;;
33987;SDS011;37428;53.580;-1.666;2022-11-20T16:45:14;3.28;;;2.50;;
33987;SDS011;37428;53.580;-1.666;2022-11-20T16:48:16;3.55;;;2.50;;
33987;SDS011;37428;53.580;-1.666;2022-11-20T16:51:20;1.27;;;1.17;;
33987;SDS011;37428;53.580;-1.666;2022-11-20T16:54:23;0.95;;;0.65;;
33987;SDS011;37428;53.580;-1.666;2022-11-20T16:57:26;0.95;;;0.70;;
33987;SDS011;37428;53.580;-1.666;2022-11-20T17:00:29;1.35;;;0.55;;
33987;SDS011;37428;53.580;-1.666;2022-11-20T17:03:32;2.55;;;1.10;;
33987;SDS011;37428;53.580;-1.666;2022-11-20T17:06:36;1.27;;;1.15;;
33987;SDS011;37428;53.580;-1.666;2022-11-20T17:09:43;1.50;;;1.40;;
33987;SDS011;37428;53.580;-1.666;2022-11-20T17:12:45;3.85;;;0.68;;
33987;SDS011;37428;53.580;-1.666;2022-11-20T17:15:47;0.60;;;0.60;;
33987;SDS011;37428;53.580;-1.666;2022-11-20T17:18:50;1.15;;;0.98;;
33987;SDS011;37428;53.580;-1.666;2022-11-20T17:21:55;2.15;;;1.50;;
33987;SDS011;37428;53.580;-1.666;2022-11-20T17:24:58;1.70;;;1.30;;
33987;SDS011;37428;53.580;-1.666;2022-11-20T17:28:00;1.25;;;0.85;;
33987;SDS011;37428;53.580;-1.666;2022-11-20T17:31:03;2.28;;;1.33;;
33987;SDS011;37428;53.580;-1.666;2022-11-20T17:34:07;1.73;;;1.63;;
33987;SDS011;37428;53.580;-1.666;2022-11-20T17:37:13;1.88;;;1.63;;
33987;SDS011;37428;53.580;-1.666;2022-11-20T17:40:16;2.72;;;1.88;;
33987;SDS011;37428;53.580;-1.666;2022-11-20T17:43:18;2.42;;;2.17;;
33987;SDS011;37428;53.580;-1.666;2022-11-20T17:46:21;3.28;;;2.35;;
33987;SDS011;37428;53.580;-1.666;2022-11-20T17:49:25;4.00;;;1.85;;
33987;SDS011;37428;53.580;-1.666;2022-11-20T17:52:28;2.58;;;2.10;;
33987;SDS011;37428;53.580;-1.666;2022-11-20T17:55:30;2.35;;;1.40;;
33987;SDS011;37428;53.580;-1.666;2022-11-20T17:58:53;2.17;;;0.90;;
33987;SDS011;37428;53.580;-1.666;2022-11-20T18:01:54;1.95;;;1.50;;
33987;SDS011;37428;53.580;-1.666;2022-11-20T18:04:56;2.17;;;1.17;;
33987;SDS011;37428;53.580;-1.666;2022-11-20T18:08:00;2.60;;;1.55;;
33987;SDS011;37428;53.580;-1.666;2022-11-20T18:11:08;2.08;;;1.48;;
33987;SDS011;37428;53.580;-1.666;2022-11-20T18:14:12;4.50;;;1.60;;
33987;SDS011;37428;53.580;-1.666;2022-11-20T18:17:33;3.80;;;1.30;;
33987;SDS011;37428;53.580;-1.666;2022-11-20T18:20:35;2.35;;;1.30;;
33987;SDS011;37428;53.580;-1.666;2022-11-20T18:23:39;4.80;;;2.20;;
33987;SDS011;37428;53.580;-1.666;2022-11-20T18:26:41;2.88;;;2.17;;
33987;SDS011;37428;53.580;-1.666;2022-11-20T18:29:45;2.08;;;1.80;;
33987;SDS011;37428;53.580;-1.666;2022-11-20T18:32:50;3.47;;;1.83;;
33987;SDS011;37428;53.580;-1.666;2022-11-20T18:35:52;2.72;;;1.73;;